Time,TemperatureF,DewpointF,PressureIn,WindDirection,WindDirectionDegrees,WindSpeedMPH,WindSpeedGustMPH,Humidity,HourlyPrecipIn,Conditions,Clouds,dailyrainin,SoftwareType,DateUTC
2013-03-17 00:22:00,54.0,41.0,-100.00,North,-999,-999.0,-999.0,61,0.00,,,-99.99,,2013-03-17 07:22:00,
2013-03-17 00:32:00,54.0,41.0,-100.00,North,-999,-999.0,-999.0,61,0.00,,,-99.99,,2013-03-17 07:32:00,
2013-03-17 00:42:00,54.0,41.0,-100.00,North,-999,-999.0,-999.0,61,0.00,,,-99.99,,2013-03-17 07:42:00,
2013-03-17 00:52:00,54.0,41.0,-100.00,North,-999,-999.0,-999.0,61,0.00,,,-99.99,,2013-03-17 07:52:00,
2013-03-17 01:00:00,52.0,42.0,-100.00,North,-999,-999.0,-999.0,67,0.00,,,-99.99,,2013-03-17 08:00:00,
2013-03-17 01:22:00,52.0,42.0,-100.00,North,-999,-999.0,-999.0,67,0.00,,,-99.99,,2013-03-17 08:22:00,
2013-03-17 01:33:00,52.0,42.0,-100.00,North,-999,-999.0,-999.0,67,0.00,,,-99.99,,2013-03-17 08:33:00,
2013-03-17 01:42:00,52.0,42.0,-100.00,North,-999,-999.0,-999.0,67,0.00,,,-99.99,,2013-03-17 08:42:00,
2013-03-17 01:52:00,52.0,42.0,-100.00,North,-999,-999.0,-999.0,67,0.00,,,-99.99,,2013-03-17 08:52:00,
2013-03-17 02:00:00,51.0,43.0,-100.00,North,-999,-999.0,-999.0,72,0.00,,,-99.99,,2013-03-17 09:00:00,
2013-03-17 02:22:00,51.0,43.0,-100.00,North,-999,-999.0,-999.0,72,0.00,,,-99.99,,2013-03-17 09:22:00,
2013-03-17 02:33:00,51.0,43.0,-100.00,North,-999,-999.0,-999.0,72,0.00,,,-99.99,,2013-03-17 09:33:00,
2013-03-17 02:43:00,51.0,43.0,-100.00,North,-999,-999.0,-999.0,72,0.00,,,-99.99,,2013-03-17 09:43:00,
2013-03-17 02:53:00,51.0,43.0,-100.00,North,-999,-999.0,-999.0,72,0.00,,,-99.99,,2013-03-17 09:53:00,
2013-03-17 03:00:00,50.0,42.0,-100.00,North,-999,-999.0,-999.0,74,0.00,,,-99.99,,2013-03-17 10:00:00,
2013-03-17 03:23:00,50.0,42.0,-100.00,North,-999,-999.0,-999.0,74,0.00,,,-99.99,,2013-03-17 10:23:00,
2013-03-17 03:33:00,50.0,42.0,-100.00,North,-999,-999.0,-999.0,74,0.00,,,-99.99,,2013-03-17 10:33:00,
2013-03-17 03:42:00,50.0,42.0,-100.00,North,-999,-999.0,-999.0,74,0.00,,,-99.99,,2013-03-17 10:42:00,
2013-03-17 03:52:00,50.0,42.0,-100.00,North,-999,-999.0,-999.0,74,0.00,,,-99.99,,2013-03-17 10:52:00,
2013-03-17 04:00:00,50.0,42.0,-100.00,North,-999,-999.0,-999.0,71,0.00,,,-99.99,,2013-03-17 11:00:00,
2013-03-17 04:22:00,50.0,42.0,-100.00,North,-999,-999.0,-999.0,71,0.00,,,-99.99,,2013-03-17 11:22:00,
2013-03-17 04:32:00,50.0,42.0,-100.00,North,-999,-999.0,-999.0,71,0.00,,,-99.99,,2013-03-17 11:32:00,
2013-03-17 04:42:00,50.0,42.0,-100.00,North,-999,-999.0,-999.0,71,0.00,,,-99.99,,2013-03-17 11:42:00,
2013-03-17 04:52:00,50.0,42.0,-100.00,North,-999,-999.0,-999.0,71,0.00,,,-99.99,,2013-03-17 11:52:00,
2013-03-17 05:00:00,48.0,41.0,-100.00,North,-999,-999.0,-999.0,76,0.00,,,-99.99,,2013-03-17 12:00:00,
2013-03-17 05:22:00,48.0,41.0,-100.00,North,-999,-999.0,-999.0,76,0.00,,,-99.99,,2013-03-17 12:22:00,
2013-03-17 05:33:00,48.0,41.0,-100.00,North,-999,-999.0,-999.0,76,0.00,,,-99.99,,2013-03-17 12:33:00,
2013-03-17 05:43:00,48.0,41.0,-100.00,North,-999,-999.0,-999.0,76,0.00,,,-99.99,,2013-03-17 12:43:00,
2013-03-17 05:52:00,48.0,41.0,-100.00,North,-999,-999.0,-999.0,76,0.00,,,-99.99,,2013-03-17 12:52:00,
2013-03-17 06:00:00,48.0,41.0,-100.00,North,-999,-999.0,-999.0,76,0.00,,,-99.99,,2013-03-17 13:00:00,
2013-03-17 06:22:00,48.0,41.0,-100.00,North,-999,-999.0,-999.0,76,0.00,,,-99.99,,2013-03-17 13:22:00,
2013-03-17 06:32:00,48.0,41.0,-100.00,North,-999,-999.0,-999.0,76,0.00,,,-99.99,,2013-03-17 13:32:00,
2013-03-17 06:43:00,48.0,41.0,-100.00,North,-999,-999.0,-999.0,76,0.00,,,-99.99,,2013-03-17 13:43:00,
2013-03-17 06:52:00,48.0,41.0,-100.00,North,-999,-999.0,-999.0,76,0.00,,,-99.99,,2013-03-17 13:52:00,
2013-03-17 07:00:00,47.0,40.0,-100.00,North,-999,-999.0,-999.0,77,0.00,,,-99.99,,2013-03-17 14:00:00,
2013-03-17 07:22:00,47.0,40.0,-100.00,North,-999,-999.0,-999.0,77,0.00,,,-99.99,,2013-03-17 14:22:00,
2013-03-17 07:33:00,47.0,40.0,-100.00,North,-999,-999.0,-999.0,77,0.00,,,-99.99,,2013-03-17 14:33:00,
2013-03-17 07:42:00,47.0,40.0,-100.00,North,-999,-999.0,-999.0,77,0.00,,,-99.99,,2013-03-17 14:42:00,
2013-03-17 07:52:00,47.0,40.0,-100.00,North,-999,-999.0,-999.0,77,0.00,,,-99.99,,2013-03-17 14:52:00,
2013-03-17 08:00:00,48.0,39.0,-100.00,North,-999,-999.0,-999.0,70,0.00,,,-99.99,,2013-03-17 15:00:00,
2013-03-17 08:23:00,48.0,39.0,-100.00,North,-999,-999.0,-999.0,70,0.00,,,-99.99,,2013-03-17 15:23:00,
2013-03-17 08:33:00,48.0,39.0,-100.00,North,-999,-999.0,-999.0,70,0.00,,,-99.99,,2013-03-17 15:33:00,
2013-03-17 08:43:00,48.0,39.0,-100.00,North,-999,-999.0,-999.0,70,0.00,,,-99.99,,2013-03-17 15:43:00,
2013-03-17 08:53:00,48.0,39.0,-100.00,North,-999,-999.0,-999.0,70,0.00,,,-99.99,,2013-03-17 15:53:00,
2013-03-17 09:00:00,50.0,40.0,-100.00,North,-999,-999.0,-999.0,69,0.00,,,-99.99,,2013-03-17 16:00:00,
2013-03-17 09:23:00,50.0,40.0,-100.00,North,-999,-999.0,-999.0,69,0.00,,,-99.99,,2013-03-17 16:23:00,
2013-03-17 09:33:00,50.0,40.0,-100.00,North,-999,-999.0,-999.0,69,0.00,,,-99.99,,2013-03-17 16:33:00,
2013-03-17 09:43:00,50.0,40.0,-100.00,North,-999,-999.0,-999.0,69,0.00,,,-99.99,,2013-03-17 16:43:00,
2013-03-17 09:52:00,50.0,40.0,-100.00,North,-999,-999.0,-999.0,69,0.00,,,-99.99,,2013-03-17 16:52:00,
2013-03-17 10:00:00,54.0,40.0,-100.00,North,-999,-999.0,-999.0,60,0.00,,,-99.99,,2013-03-17 17:00:00,
2013-03-17 10:22:00,54.0,40.0,-100.00,North,-999,-999.0,-999.0,60,0.00,,,-99.99,,2013-03-17 17:22:00,
2013-03-17 10:33:00,54.0,40.0,-100.00,North,-999,-999.0,-999.0,60,0.00,,,-99.99,,2013-03-17 17:33:00,
2013-03-17 10:42:00,54.0,40.0,-100.00,North,-999,-999.0,-999.0,60,0.00,,,-99.99,,2013-03-17 17:42:00,
2013-03-17 10:53:00,54.0,40.0,-100.00,North,-999,-999.0,-999.0,60,0.00,,,-99.99,,2013-03-17 17:53:00,
2013-03-17 11:00:00,58.0,40.0,-100.00,North,-999,-999.0,-999.0,52,0.00,,,-99.99,,2013-03-17 18:00:00,
2013-03-17 11:22:00,58.0,40.0,-100.00,North,-999,-999.0,-999.0,52,0.00,,,-99.99,,2013-03-17 18:22:00,
2013-03-17 11:32:00,58.0,40.0,-100.00,North,-999,-999.0,-999.0,52,0.00,,,-99.99,,2013-03-17 18:32:00,
2013-03-17 11:42:00,58.0,40.0,-100.00,North,-999,-999.0,-999.0,52,0.00,,,-99.99,,2013-03-17 18:42:00,
2013-03-17 11:52:00,58.0,40.0,-100.00,North,-999,-999.0,-999.0,52,0.00,,,-99.99,,2013-03-17 18:52:00,
2013-03-17 12:00:00,62.0,41.0,-100.00,North,-999,-999.0,-999.0,45,0.00,,,-99.99,,2013-03-17 19:00:00,
2013-03-17 12:23:00,62.0,41.0,-100.00,North,-999,-999.0,-999.0,45,0.00,,,-99.99,,2013-03-17 19:23:00,
2013-03-17 12:33:00,62.0,41.0,-100.00,North,-999,-999.0,-999.0,45,0.00,,,-99.99,,2013-03-17 19:33:00,
2013-03-17 12:42:00,62.0,41.0,-100.00,North,-999,-999.0,-999.0,45,0.00,,,-99.99,,2013-03-17 19:42:00,
2013-03-17 12:53:00,62.0,41.0,-100.00,North,-999,-999.0,-999.0,45,0.00,,,-99.99,,2013-03-17 19:53:00,
2013-03-17 13:00:00,66.0,36.0,-100.00,North,-999,-999.0,-999.0,32,0.00,,,-99.99,,2013-03-17 20:00:00,
2013-03-17 13:23:00,66.0,36.0,-100.00,North,-999,-999.0,-999.0,32,0.00,,,-99.99,,2013-03-17 20:23:00,
2013-03-17 13:33:00,66.0,36.0,-100.00,North,-999,-999.0,-999.0,32,0.00,,,-99.99,,2013-03-17 20:33:00,
2013-03-17 13:42:00,66.0,36.0,-100.00,North,-999,-999.0,-999.0,32,0.00,,,-99.99,,2013-03-17 20:42:00,
2013-03-17 13:52:00,66.0,36.0,-100.00,North,-999,-999.0,-999.0,32,0.00,,,-99.99,,2013-03-17 20:52:00,
2013-03-17 14:00:00,70.0,36.0,-100.00,North,-999,-999.0,-999.0,29,0.00,,,-99.99,,2013-03-17 21:00:00,
2013-03-17 14:23:00,70.0,36.0,-100.00,North,-999,-999.0,-999.0,29,0.00,,,-99.99,,2013-03-17 21:23:00,
2013-03-17 14:33:00,70.0,36.0,-100.00,North,-999,-999.0,-999.0,29,0.00,,,-99.99,,2013-03-17 21:33:00,
2013-03-17 14:43:00,70.0,36.0,-100.00,North,-999,-999.0,-999.0,29,0.00,,,-99.99,,2013-03-17 21:43:00,
2013-03-17 14:52:00,70.0,36.0,-100.00,North,-999,-999.0,-999.0,29,0.00,,,-99.99,,2013-03-17 21:52:00,
2013-03-17 15:00:00,70.0,32.0,-100.00,North,-999,-999.0,-999.0,24,0.00,,,-99.99,,2013-03-17 22:00:00,
2013-03-17 15:23:00,70.0,32.0,-100.00,North,-999,-999.0,-999.0,24,0.00,,,-99.99,,2013-03-17 22:23:00,
2013-03-17 15:33:00,70.0,32.0,-100.00,North,-999,-999.0,-999.0,24,0.00,,,-99.99,,2013-03-17 22:33:00,
2013-03-17 15:42:00,70.0,32.0,-100.00,North,-999,-999.0,-999.0,24,0.00,,,-99.99,,2013-03-17 22:42:00,
2013-03-17 15:52:00,70.0,32.0,-100.00,North,-999,-999.0,-999.0,24,0.00,,,-99.99,,2013-03-17 22:52:00,
2013-03-17 16:00:00,73.0,35.0,-100.00,North,-999,-999.0,-999.0,25,0.00,,,-99.99,,2013-03-17 23:00:00,
2013-03-17 16:23:00,73.0,35.0,-100.00,North,-999,-999.0,-999.0,25,0.00,,,-99.99,,2013-03-17 23:23:00,
2013-03-17 16:33:00,73.0,35.0,-100.00,North,-999,-999.0,-999.0,25,0.00,,,-99.99,,2013-03-17 23:33:00,
2013-03-17 16:43:00,73.0,35.0,-100.00,North,-999,-999.0,-999.0,25,0.00,,,-99.99,,2013-03-17 23:43:00,
2013-03-17 16:52:00,73.0,35.0,-100.00,North,-999,-999.0,-999.0,25,0.00,,,-99.99,,2013-03-17 23:52:00,
2013-03-17 17:00:00,68.0,43.0,-100.00,North,-999,-999.0,-999.0,39,0.00,,,-99.99,,2013-03-18 00:00:00,
2013-03-17 17:22:00,68.0,43.0,-100.00,North,-999,-999.0,-999.0,39,0.00,,,-99.99,,2013-03-18 00:22:00,
2013-03-17 17:33:00,68.0,43.0,-100.00,North,-999,-999.0,-999.0,39,0.00,,,-99.99,,2013-03-18 00:33:00,
2013-03-17 17:42:00,68.0,43.0,-100.00,North,-999,-999.0,-999.0,39,0.00,,,-99.99,,2013-03-18 00:42:00,
2013-03-17 17:52:00,68.0,43.0,-100.00,North,-999,-999.0,-999.0,39,0.00,,,-99.99,,2013-03-18 00:52:00,
2013-03-17 18:00:00,66.0,42.0,-100.00,North,-999,-999.0,-999.0,41,0.00,,,-99.99,,2013-03-18 01:00:00,
2013-03-17 18:22:00,66.0,42.0,-100.00,North,-999,-999.0,-999.0,41,0.00,,,-99.99,,2013-03-18 01:22:00,
2013-03-17 18:33:00,66.0,42.0,-100.00,North,-999,-999.0,-999.0,41,0.00,,,-99.99,,2013-03-18 01:33:00,
2013-03-17 18:42:00,66.0,42.0,-100.00,North,-999,-999.0,-999.0,41,0.00,,,-99.99,,2013-03-18 01:42:00,
2013-03-17 18:52:00,66.0,42.0,-100.00,North,-999,-999.0,-999.0,41,0.00,,,-99.99,,2013-03-18 01:52:00,
2013-03-17 19:00:00,62.0,47.0,-100.00,North,-999,-999.0,-999.0,56,0.00,,,-99.99,,2013-03-18 02:00:00,
2013-03-17 19:22:00,62.0,47.0,-100.00,North,-999,-999.0,-999.0,56,0.00,,,-99.99,,2013-03-18 02:22:00,
2013-03-17 19:32:00,62.0,47.0,-100.00,North,-999,-999.0,-999.0,56,0.00,,,-99.99,,2013-03-18 02:32:00,
2013-03-17 19:42:00,62.0,47.0,-100.00,North,-999,-999.0,-999.0,56,0.00,,,-99.99,,2013-03-18 02:42:00,
2013-03-17 19:52:00,62.0,47.0,-100.00,North,-999,-999.0,-999.0,56,0.00,,,-99.99,,2013-03-18 02:52:00,
2013-03-17 20:00:00,59.0,40.0,-100.00,North,-999,-999.0,-999.0,49,0.00,,,-99.99,,2013-03-18 03:00:00,
2013-03-17 20:22:00,59.0,40.0,-100.00,North,-999,-999.0,-999.0,49,0.00,,,-99.99,,2013-03-18 03:22:00,
2013-03-17 20:33:00,59.0,40.0,-100.00,North,-999,-999.0,-999.0,49,0.00,,,-99.99,,2013-03-18 03:33:00,
2013-03-17 20:42:00,59.0,40.0,-100.00,North,-999,-999.0,-999.0,49,0.00,,,-99.99,,2013-03-18 03:42:00,
2013-03-17 20:53:00,59.0,40.0,-100.00,North,-999,-999.0,-999.0,49,0.00,,,-99.99,,2013-03-18 03:53:00,
2013-03-17 21:00:00,57.0,38.0,-100.00,North,-999,-999.0,-999.0,48,0.00,,,-99.99,,2013-03-18 04:00:00,
2013-03-17 21:23:00,57.0,38.0,-100.00,North,-999,-999.0,-999.0,48,0.00,,,-99.99,,2013-03-18 04:23:00,
2013-03-17 21:33:00,57.0,38.0,-100.00,North,-999,-999.0,-999.0,48,0.00,,,-99.99,,2013-03-18 04:33:00,
2013-03-17 21:42:00,57.0,38.0,-100.00,North,-999,-999.0,-999.0,48,0.00,,,-99.99,,2013-03-18 04:42:00,
2013-03-17 21:52:00,57.0,38.0,-100.00,North,-999,-999.0,-999.0,48,0.00,,,-99.99,,2013-03-18 04:52:00,
2013-03-17 22:00:00,55.0,37.0,-100.00,North,-999,-999.0,-999.0,50,0.00,,,-99.99,,2013-03-18 05:00:00,
2013-03-17 22:23:00,55.0,37.0,-100.00,North,-999,-999.0,-999.0,50,0.00,,,-99.99,,2013-03-18 05:23:00,
2013-03-17 22:32:00,55.0,37.0,-100.00,North,-999,-999.0,-999.0,50,0.00,,,-99.99,,2013-03-18 05:32:00,
2013-03-17 22:43:00,55.0,37.0,-100.00,North,-999,-999.0,-999.0,50,0.00,,,-99.99,,2013-03-18 05:43:00,
2013-03-17 22:52:00,55.0,37.0,-100.00,North,-999,-999.0,-999.0,50,0.00,,,-99.99,,2013-03-18 05:52:00,
2013-03-17 23:00:00,52.0,37.0,-100.00,North,-999,-999.0,-999.0,56,0.00,,,-99.99,,2013-03-18 06:00:00,
2013-03-17 23:22:00,52.0,37.0,-100.00,North,-999,-999.0,-999.0,56,0.00,,,-99.99,,2013-03-18 06:22:00,
2013-03-17 23:32:00,52.0,37.0,-100.00,North,-999,-999.0,-999.0,56,0.00,,,-99.99,,2013-03-18 06:32:00,
2013-03-17 23:42:00,52.0,37.0,-100.00,North,-999,-999.0,-999.0,56,0.00,,,-99.99,,2013-03-18 06:42:00,
2013-03-17 23:52:00,52.0,37.0,-100.00,North,-999,-999.0,-999.0,56,0.00,,,-99.99,,2013-03-18 06:52:00,